Terminal Aerodrome Forecast
Issued by NWS

Home | Current Version | Previous Version | Text Only | Print | Product List | Glossary On
Versions: 1 2 3 4 5 6 7 8 9 10 11 12 13 14 15 16 17 18
000
FTUS44 KLIX 232300 RRA
TAFGPT
TAF
KGPT 232340Z 2400/2424 21012KT P6SM FEW250
     FM240400 21012KT 6SM BR BKN008
     FM240700 22012KT 2SM BR BKN005
     FM241100 26009KT 4SM BR BKN003
     FM241300 27009KT P6SM SCT003
     FM241500 28009KT P6SM FEW250=

USA.gov is the U.S. government's official web portal to all federal, state and local government web resources and services.